Time;durP1;ratioP1;P1;durP2;ratioP2;P2;SDS_P1;SDS_P2;PMS_P1;PMS_P2;Temp;Humidity;BMP_temperature;BMP_pressure;BME280_temperature;BME280_humidity;BME280_pressure;Samples;Min_cycle;Max_cycle;Signal;HPM_P1;HPM_P2
2023/11/11 04:02:46;;;;;;;2.20;1.05;;;7.50;99.90;;;;;;4951391;28;20574;-79
2023/11/11 04:05:16;;;;;;;0.85;0.82;;;7.50;99.90;;;;;;4952792;29;20074;-79
2023/11/11 04:07:42;;;;;;;2.75;0.77;;;7.50;99.90;;;;;;4957311;28;20034;-78
2023/11/11 04:10:08;;;;;;;1.00;0.90;;;7.60;99.90;;;;;;4958832;28;20024;-79
2023/11/11 04:12:33;;;;;;;1.38;1.05;;;7.60;99.90;;;;;;4956371;28;20439;-79
2023/11/11 04:14:59;;;;;;;1.00;0.90;;;7.50;99.90;;;;;;4956174;28;20086;-79
2023/11/11 04:17:25;;;;;;;0.70;0.70;;;7.50;99.90;;;;;;4954425;28;20090;-79
2023/11/11 04:19:51;;;;;;;1.35;0.70;;;7.50;99.90;;;;;;4959739;28;20018;-79
2023/11/11 04:22:16;;;;;;;0.55;0.50;;;7.40;99.20;;;;;;4958944;28;20024;-79
2023/11/11 04:24:42;;;;;;;3.55;0.60;;;7.40;99.30;;;;;;4958846;28;20088;-79
2023/11/11 04:27:08;;;;;;;0.73;0.57;;;7.30;99.40;;;;;;4955875;28;20432;-79
2023/11/11 04:29:34;;;;;;;0.40;0.40;;;7.30;99.60;;;;;;4957876;28;20023;-79
2023/11/11 04:32:00;;;;;;;0.50;0.50;;;7.40;99.20;;;;;;4958249;28;20479;-79
2023/11/11 04:34:28;;;;;;;0.55;0.55;;;7.40;99.10;;;;;;4959210;28;20039;-79
2023/11/11 04:36:55;;;;;;;0.40;0.40;;;7.40;99.00;;;;;;4957855;28;20071;-80
2023/11/11 04:39:21;;;;;;;0.47;0.47;;;7.50;99.20;;;;;;4955376;28;20024;-79
2023/11/11 04:41:47;;;;;;;0.85;0.55;;;7.40;99.50;;;;;;4958684;28;20030;-79
2023/11/11 04:44:13;;;;;;;1.17;0.50;;;7.50;99.10;;;;;;4957700;28;20031;-79
2023/11/11 04:46:39;;;;;;;0.43;0.43;;;7.30;99.30;;;;;;4957780;28;20019;-79
2023/11/11 04:49:05;;;;;;;0.50;0.50;;;7.30;99.40;;;;;;4954868;28;20519;-79
2023/11/11 04:51:31;;;;;;;6.22;0.88;;;7.50;99.20;;;;;;4953620;28;20020;-79
2023/11/11 04:53:56;;;;;;;1.20;0.82;;;7.40;99.10;;;;;;4958984;28;20027;-79
2023/11/11 04:56:22;;;;;;;2.15;1.20;;;7.30;99.30;;;;;;4956559;28;20083;-79
2023/11/11 04:58:48;;;;;;;1.30;1.20;;;7.30;99.30;;;;;;4958169;28;20027;-79
2023/11/11 05:01:14;;;;;;;1.40;1.20;;;7.30;99.30;;;;;;4955077;28;20031;-80
2023/11/11 05:03:40;;;;;;;0.90;0.85;;;7.30;99.70;;;;;;4971219;28;20090;-79
2023/11/11 05:06:06;;;;;;;1.95;1.35;;;7.40;99.70;;;;;;4959356;28;20023;-79
2023/11/11 05:08:32;;;;;;;4.80;1.08;;;7.40;99.60;;;;;;4958472;28;20027;-79
2023/11/11 05:10:58;;;;;;;1.13;0.90;;;7.50;99.40;;;;;;4957388;28;20027;-80
2023/11/11 05:13:24;;;;;;;1.27;1.00;;;7.40;99.50;;;;;;4955405;28;20086;-79
2023/11/11 05:15:59;;;;;;;0.75;0.75;;;7.20;99.50;;;;;;4955182;28;20488;-79
2023/11/11 05:18:28;;;;;;;2.50;1.38;;;7.40;99.40;;;;;;4958622;28;20111;-79
2023/11/11 05:20:53;;;;;;;1.33;0.98;;;7.50;99.20;;;;;;4974889;28;20617;-78
2023/11/11 05:23:19;;;;;;;1.27;1.05;;;7.40;98.80;;;;;;4972049;28;20058;-79
2023/11/11 05:25:45;;;;;;;1.52;0.90;;;7.40;99.10;;;;;;4955466;28;20027;-79
2023/11/11 05:28:11;;;;;;;2.25;1.10;;;7.40;99.30;;;;;;4955978;28;20030;-79
2023/11/11 05:30:36;;;;;;;1.10;0.85;;;7.50;99.30;;;;;;4958961;28;20031;-78
2023/11/11 05:33:02;;;;;;;1.10;1.00;;;7.40;99.40;;;;;;4955381;28;20120;-79
2023/11/11 05:35:27;;;;;;;0.90;0.88;;;7.50;99.40;;;;;;4968171;28;20602;-79
2023/11/11 05:37:55;;;;;;;1.00;0.90;;;7.50;99.40;;;;;;4954445;28;20027;-79
2023/11/11 05:40:21;;;;;;;3.65;1.30;;;7.40;99.60;;;;;;4958834;28;20502;-78
2023/11/11 05:42:47;;;;;;;3.70;0.93;;;7.20;99.90;;;;;;4959673;28;20023;-79
2023/11/11 05:45:14;;;;;;;1.98;0.80;;;7.50;99.80;;;;;;4955287;28;20396;-78
2023/11/11 05:47:39;;;;;;;2.92;0.95;;;7.30;99.70;;;;;;4954935;28;20019;-79
2023/11/11 05:50:06;;;;;;;4.88;0.88;;;7.30;99.70;;;;;;4953195;28;20046;-78
2023/11/11 05:52:32;;;;;;;0.90;0.75;;;7.30;99.80;;;;;;4959380;28;20023;-79
2023/11/11 05:54:57;;;;;;;0.50;0.50;;;7.40;99.70;;;;;;4959453;28;20061;-79
2023/11/11 05:57:23;;;;;;;0.95;0.70;;;7.40;99.20;;;;;;4956564;28;20031;-79
2023/11/11 05:59:48;;;;;;;2.78;0.75;;;7.40;99.20;;;;;;4955788;28;20027;-78
2023/11/11 06:02:14;;;;;;;0.90;0.70;;;7.40;99.60;;;;;;4951657;28;20105;-79
2023/11/11 06:04:40;;;;;;;1.65;0.75;;;7.30;99.70;;;;;;4960037;28;20726;-79
2023/11/11 06:07:06;;;;;;;0.70;0.65;;;7.40;99.50;;;;;;4958265;28;20027;-79
2023/11/11 06:09:34;;;;;;;1.35;0.90;;;7.40;99.60;;;;;;4955205;28;20024;-79
2023/11/11 06:12:01;;;;;;;2.58;0.90;;;7.40;99.30;;;;;;4953879;28;20034;-79
2023/11/11 06:14:26;;;;;;;1.40;0.85;;;7.40;99.30;;;;;;4955546;28;20070;-79
2023/11/11 06:16:52;;;;;;;4.40;0.80;;;7.40;99.50;;;;;;4962498;28;20035;-79
2023/11/11 06:19:19;;;;;;;0.60;0.60;;;7.50;99.40;;;;;;4957495;28;20019;-79
2023/11/11 06:21:46;;;;;;;0.63;0.60;;;7.50;99.10;;;;;;4954537;28;20024;-79
2023/11/11 06:24:12;;;;;;;1.08;0.80;;;7.40;99.70;;;;;;4951793;28;20030;-79
2023/11/11 06:26:38;;;;;;;1.48;0.60;;;7.30;99.10;;;;;;4956856;28;20016;-79
2023/11/11 06:29:06;;;;;;;1.08;0.82;;;7.40;99.00;;;;;;4959277;28;20026;-79
2023/11/11 06:31:32;;;;;;;0.98;0.80;;;7.20;99.90;;;;;;4972258;28;20026;-79
2023/11/11 06:33:58;;;;;;;1.88;0.80;;;7.30;99.70;;;;;;4970079;28;20023;-78
2023/11/11 06:36:24;;;;;;;3.67;0.90;;;7.30;99.60;;;;;;4953218;28;20015;-79
2023/11/11 06:38:50;;;;;;;1.17;0.80;;;7.40;99.40;;;;;;4958020;28;20406;-79
2023/11/11 06:41:17;;;;;;;1.02;0.90;;;7.20;99.90;;;;;;4957193;28;20022;-79
2023/11/11 06:43:43;;;;;;;1.77;1.00;;;7.20;99.90;;;;;;4953466;28;20019;-78
2023/11/11 06:46:08;;;;;;;2.60;1.15;;;7.30;99.50;;;;;;4953394;28;20391;-79
2023/11/11 06:48:34;;;;;;;1.67;1.25;;;7.30;99.30;;;;;;4952951;28;20035;-78
2023/11/11 06:51:00;;;;;;;2.40;1.13;;;7.40;99.40;;;;;;4975272;28;20026;-79
2023/11/11 06:53:26;;;;;;;2.25;1.33;;;7.40;99.40;;;;;;4955265;28;20115;-79
2023/11/11 06:55:51;;;;;;;3.42;1.20;;;7.30;99.80;;;;;;4956984;28;20026;-79
2023/11/11 06:58:17;;;;;;;4.68;1.08;;;7.20;99.90;;;;;;4952277;28;20023;-79
2023/11/11 07:00:44;;;;;;;2.42;1.02;;;7.20;99.90;;;;;;4956392;28;20016;-79
2023/11/11 07:03:10;;;;;;;1.60;1.08;;;7.20;99.90;;;;;;4957903;28;20527;-79
2023/11/11 07:05:35;;;;;;;2.17;1.15;;;7.20;99.90;;;;;;4957150;28;20022;-79
2023/11/11 07:08:02;;;;;;;0.93;0.82;;;7.30;99.50;;;;;;4954133;28;20104;-79
2023/11/11 07:10:30;;;;;;;1.27;0.90;;;7.30;99.60;;;;;;4953010;28;20395;-79
2023/11/11 07:12:56;;;;;;;1.63;1.10;;;7.40;99.40;;;;;;4953374;28;20035;-81
2023/11/11 07:15:22;;;;;;;1.95;1.38;;;7.20;99.60;;;;;;4957024;28;20100;-79
2023/11/11 07:17:47;;;;;;;1.10;0.95;;;7.40;99.50;;;;;;4957081;28;20456;-79
2023/11/11 07:20:17;;;;;;;2.13;1.13;;;7.40;99.10;;;;;;4953629;28;20063;-79
2023/11/11 07:22:42;;;;;;;1.67;1.08;;;7.30;99.10;;;;;;4952695;28;20015;-78
2023/11/11 07:25:09;;;;;;;2.85;1.00;;;7.20;99.60;;;;;;4956812;28;20037;-79
2023/11/11 07:27:35;;;;;;;1.15;1.05;;;7.20;99.80;;;;;;4956081;28;20027;-78
2023/11/11 07:30:04;;;;;;;1.00;0.90;;;7.40;99.60;;;;;;4955906;28;20035;-79
2023/11/11 07:32:30;;;;;;;1.83;1.20;;;7.30;99.90;;;;;;4950978;28;20019;-79
2023/11/11 07:34:55;;;;;;;2.08;1.10;;;7.50;99.20;;;;;;4954416;28;20030;-78
2023/11/11 07:37:22;;;;;;;1.88;1.38;;;7.50;99.50;;;;;;4961075;28;20030;-78
2023/11/11 07:39:48;;;;;;;1.45;1.10;;;7.60;99.00;;;;;;4957742;28;20078;-78
2023/11/11 07:42:13;;;;;;;5.25;1.92;;;7.50;99.50;;;;;;4958345;28;20455;-78
2023/11/11 07:44:39;;;;;;;5.45;1.70;;;7.70;98.60;;;;;;4956993;28;20451;-79
2023/11/11 07:47:07;;;;;;;5.55;1.58;;;7.70;98.70;;;;;;4958762;28;20033;-79
2023/11/11 07:49:36;;;;;;;2.70;1.70;;;7.80;98.70;;;;;;4957840;28;20023;-79
2023/11/11 07:52:02;;;;;;;3.25;1.52;;;7.80;98.70;;;;;;4961355;28;20106;-79
2023/11/11 07:54:31;;;;;;;3.92;1.52;;;7.60;99.00;;;;;;4957906;28;20103;-79
2023/11/11 07:56:57;;;;;;;5.10;1.63;;;7.50;99.40;;;;;;4955413;28;20102;-79
2023/11/11 07:59:23;;;;;;;3.33;1.42;;;7.50;99.70;;;;;;4958492;28;20023;-79
2023/11/11 08:01:48;;;;;;;3.67;1.58;;;7.70;99.70;;;;;;4959409;28;20446;-79
2023/11/11 08:04:14;;;;;;;1.83;1.33;;;7.80;99.00;;;;;;4972279;28;20023;-79
2023/11/11 08:06:40;;;;;;;1.83;1.00;;;7.80;99.10;;;;;;4958409;28;20024;-79
2023/11/11 08:09:09;;;;;;;2.67;1.17;;;7.80;97.80;;;;;;4955611;28;20392;-79
2023/11/11 08:11:35;;;;;;;1.90;1.20;;;7.90;97.50;;;;;;4948984;28;20404;-79
2023/11/11 08:14:02;;;;;;;2.72;1.45;;;7.90;97.50;;;;;;4958407;28;20082;-79
2023/11/11 08:16:30;;;;;;;1.40;1.30;;;8.00;98.40;;;;;;4956108;28;20496;-79
2023/11/11 08:18:55;;;;;;;3.75;1.15;;;8.30;97.00;;;;;;4958734;28;20114;-79
2023/11/11 08:21:25;;;;;;;5.28;1.48;;;8.40;96.70;;;;;;4955623;28;20147;-79
2023/11/11 08:23:52;;;;;;;2.13;1.20;;;8.40;96.40;;;;;;4964098;28;20481;-79
2023/11/11 08:26:18;;;;;;;2.58;1.30;;;8.20;96.00;;;;;;4975444;28;20024;-79
2023/11/11 08:28:44;;;;;;;1.55;1.10;;;8.10;95.70;;;;;;4959701;28;20030;-79
2023/11/11 08:31:10;;;;;;;1.75;1.10;;;7.90;96.80;;;;;;4955148;28;20043;-79
2023/11/11 08:33:35;;;;;;;1.73;1.13;;;8.00;96.60;;;;;;4958905;28;20027;-79
2023/11/11 08:36:02;;;;;;;1.25;1.00;;;8.20;95.90;;;;;;4964559;28;20022;-80
2023/11/11 08:38:27;;;;;;;1.70;1.20;;;8.00;95.70;;;;;;4959346;28;20078;-79
2023/11/11 08:40:53;;;;;;;1.10;1.00;;;7.90;95.40;;;;;;4959116;28;20031;-78
2023/11/11 08:43:18;;;;;;;2.25;1.20;;;7.80;95.60;;;;;;4956139;28;20039;-79
2023/11/11 08:45:44;;;;;;;5.30;1.17;;;7.80;95.70;;;;;;4958570;28;20552;-79
2023/11/11 08:48:09;;;;;;;2.58;1.33;;;7.90;95.90;;;;;;4962736;28;20045;-79
2023/11/11 08:50:35;;;;;;;2.08;1.20;;;7.90;95.80;;;;;;4959258;28;20026;-79
2023/11/11 08:53:01;;;;;;;4.18;1.77;;;7.90;95.90;;;;;;4953921;28;20019;-81
2023/11/11 08:55:26;;;;;;;4.72;1.85;;;7.80;96.20;;;;;;4954233;28;20110;-79
2023/11/11 08:57:52;;;;;;;2.63;1.45;;;7.80;96.50;;;;;;4960308;28;20027;-79
2023/11/11 09:00:19;;;;;;;2.08;1.17;;;7.80;96.40;;;;;;4961291;28;20032;-79
2023/11/11 09:02:44;;;;;;;6.32;1.65;;;7.60;95.80;;;;;;4958075;28;20499;-79
2023/11/11 09:05:10;;;;;;;4.55;1.33;;;7.80;96.10;;;;;;4972066;28;20031;-79
2023/11/11 09:07:35;;;;;;;4.82;1.90;;;7.70;95.90;;;;;;4970211;28;20027;-79
2023/11/11 09:10:03;;;;;;;2.72;1.20;;;7.80;95.80;;;;;;4960738;28;20077;-79
2023/11/11 09:12:29;;;;;;;1.98;1.27;;;7.80;95.80;;;;;;4957726;28;20058;-79
2023/11/11 09:14:55;;;;;;;4.13;1.40;;;7.80;96.10;;;;;;4959736;28;20054;-79
2023/11/11 09:17:24;;;;;;;1.38;0.90;;;7.90;95.90;;;;;;4955772;28;20134;-79
2023/11/11 09:19:50;;;;;;;6.50;1.45;;;8.10;95.70;;;;;;4954527;28;20154;-79
2023/11/11 09:22:16;;;;;;;4.85;1.30;;;8.10;95.50;;;;;;4960441;28;20031;-79
2023/11/11 09:24:41;;;;;;;1.20;1.10;;;8.00;94.90;;;;;;4959093;28;20484;-79
2023/11/11 09:27:07;;;;;;;1.30;1.20;;;8.00;95.00;;;;;;4956080;28;20708;-79
2023/11/11 09:29:33;;;;;;;1.08;0.98;;;8.00;95.20;;;;;;4955796;28;20510;-79
2023/11/11 09:31:58;;;;;;;1.30;1.20;;;8.10;94.30;;;;;;4955511;28;20117;-79
2023/11/11 09:34:24;;;;;;;2.10;1.30;;;8.30;93.60;;;;;;4961877;28;20038;-79
2023/11/11 09:36:50;;;;;;;3.83;0.90;;;8.40;93.80;;;;;;4960161;28;20094;-79
2023/11/11 09:39:17;;;;;;;2.22;1.10;;;8.50;93.00;;;;;;4955902;28;20030;-80
2023/11/11 09:41:43;;;;;;;1.65;1.52;;;8.50;92.70;;;;;;4950696;28;20089;-79
2023/11/11 09:44:08;;;;;;;3.10;1.10;;;8.60;92.70;;;;;;4955886;28;20022;-79
2023/11/11 09:46:44;;;;;;;3.03;1.15;;;8.70;92.70;;;;;;4959627;28;20015;-79
2023/11/11 09:49:10;;;;;;;3.22;1.10;;;8.60;91.60;;;;;;4955506;28;20027;-79
2023/11/11 09:51:38;;;;;;;2.25;1.30;;;8.70;91.90;;;;;;4955788;28;20023;-79
2023/11/11 09:54:05;;;;;;;1.30;1.10;;;8.80;92.30;;;;;;4957689;28;20025;-80
2023/11/11 09:56:31;;;;;;;1.35;1.10;;;8.80;91.60;;;;;;4962869;28;20039;-79
2023/11/11 09:59:02;;;;;;;0.88;0.88;;;8.90;91.20;;;;;;4961157;28;20027;-79
2023/11/11 10:01:27;;;;;;;1.20;0.90;;;9.10;90.80;;;;;;4957136;28;20027;-79
2023/11/11 10:03:56;;;;;;;1.48;0.88;;;9.20;91.10;;;;;;4954972;28;20027;-79
2023/11/11 10:06:23;;;;;;;0.98;0.77;;;9.30;91.10;;;;;;4952170;28;20023;-80
2023/11/11 10:08:51;;;;;;;1.15;1.05;;;9.40;90.00;;;;;;4957768;28;20029;-79
2023/11/11 10:11:16;;;;;;;1.90;1.00;;;9.60;90.10;;;;;;4958798;28;20023;-80
2023/11/11 10:13:42;;;;;;;1.55;0.80;;;9.70;91.00;;;;;;4971223;28;20026;-80
2023/11/11 10:16:17;;;;;;;2.22;0.80;;;9.70;89.80;;;;;;4955280;28;20063;-80
2023/11/11 10:18:45;;;;;;;1.95;0.90;;;9.60;90.20;;;;;;4952799;28;20019;-79
2023/11/11 10:21:12;;;;;;;1.13;1.02;;;9.70;90.00;;;;;;4956178;28;20531;-81
2023/11/11 10:23:38;;;;;;;5.25;0.88;;;9.70;91.20;;;;;;4956858;28;20377;-81
2023/11/11 10:26:04;;;;;;;1.67;1.15;;;9.80;89.10;;;;;;4956674;28;20061;-81
2023/11/11 10:28:30;;;;;;;2.22;1.40;;;9.60;89.00;;;;;;4958680;28;20034;-82
2023/11/11 10:31:06;;;;;;;0.80;0.80;;;9.60;88.70;;;;;;4958754;28;20515;-82
2023/11/11 10:33:32;;;;;;;2.28;1.05;;;9.60;86.70;;;;;;4960271;28;20506;-82
2023/11/11 10:35:57;;;;;;;1.25;1.15;;;9.50;85.50;;;;;;4957851;28;20118;-81
2023/11/11 10:38:23;;;;;;;1.88;0.80;;;9.80;87.40;;;;;;4954043;28;20073;-81
2023/11/11 10:40:49;;;;;;;3.08;0.90;;;10.00;86.90;;;;;;4952823;28;20023;-82
2023/11/11 10:43:15;;;;;;;0.93;0.80;;;10.00;86.40;;;;;;4959758;28;20048;-82
2023/11/11 10:45:41;;;;;;;1.58;0.98;;;9.90;88.20;;;;;;4956664;28;20109;-82
2023/11/11 10:48:07;;;;;;;0.95;0.95;;;9.80;86.80;;;;;;4956154;28;20023;-81
2023/11/11 10:50:33;;;;;;;1.20;0.95;;;9.80;87.00;;;;;;4955908;28;20050;-82
2023/11/11 10:53:00;;;;;;;2.75;1.05;;;9.90;86.60;;;;;;4955643;28;20369;-83
2023/11/11 10:55:29;;;;;;;41.53;2.45;;;10.20;86.60;;;;;;4960964;28;20023;-84
2023/11/11 10:57:56;;;;;;;3.28;1.00;;;10.30;87.80;;;;;;4974748;28;20027;-83
2023/11/11 11:00:24;;;;;;;3.58;1.00;;;10.30;86.90;;;;;;4971375;28;20118;-83
2023/11/11 11:02:52;;;;;;;3.22;1.08;;;11.70;97.10;;;;;;4953588;28;20019;-83
2023/11/11 11:05:27;;;;;;;1.75;1.38;;;12.40;87.00;;;;;;4958513;28;20515;-81
2023/11/11 11:08:02;;;;;;;5.30;1.10;;;12.10;90.40;;;;;;4959828;28;20039;-79
2023/11/11 11:10:40;;;;;;;3.10;1.20;;;12.50;91.90;;;;;;4969592;28;20035;-77
2023/11/11 11:13:10;;;;;;;4.55;1.00;;;12.80;87.50;;;;;;4952885;28;20377;-81
2023/11/11 11:15:44;;;;;;;4.03;1.10;;;13.00;84.70;;;;;;4953213;28;20031;-79
2023/11/11 11:18:10;;;;;;;1.42;1.00;;;12.50;87.20;;;;;;4951905;28;20090;-77
2023/11/11 11:20:37;;;;;;;1.30;0.77;;;11.90;89.30;;;;;;4958205;28;20067;-82
2023/11/11 11:23:10;;;;;;;9.73;0.95;;;13.00;90.20;;;;;;4957661;28;20043;-81
2023/11/11 11:25:40;;;;;;;7.72;0.95;;;13.70;88.30;;;;;;4954309;28;20090;-80
2023/11/11 11:28:13;;;;;;;13.05;1.30;;;14.50;84.10;;;;;;4969816;28;20038;-79
2023/11/11 11:30:39;;;;;;;2.97;0.90;;;14.70;84.20;;;;;;4972233;28;20063;-76
2023/11/11 11:33:08;;;;;;;3.97;0.68;;;14.90;83.00;;;;;;4957345;28;20039;-80
2023/11/11 11:35:37;;;;;;;2.80;0.88;;;14.90;82.20;;;;;;4953163;28;20086;-80
2023/11/11 11:38:05;;;;;;;2.58;0.70;;;14.90;82.40;;;;;;4957868;28;20144;-81
2023/11/11 11:40:34;;;;;;;1.35;0.90;;;14.50;83.50;;;;;;4955701;28;20033;-79
2023/11/11 11:43:09;;;;;;;0.75;0.73;;;14.50;83.50;;;;;;4974299;28;20016;-79
2023/11/11 11:45:35;;;;;;;0.50;0.50;;;14.60;81.20;;;;;;4953841;28;20035;-77
2023/11/11 11:48:01;;;;;;;5.65;1.38;;;14.70;80.50;;;;;;4954458;28;20030;-75
2023/11/11 11:50:26;;;;;;;7.15;1.10;;;14.70;80.30;;;;;;4950884;28;20027;-79
2023/11/11 11:52:53;;;;;;;11.13;1.77;;;14.70;81.00;;;;;;4958916;28;20094;-78
2023/11/11 11:55:19;;;;;;;18.23;1.23;;;14.70;81.00;;;;;;4958704;28;20041;-76
2023/11/11 11:57:53;;;;;;;6.97;1.65;;;14.70;81.20;;;;;;4954211;28;20535;-77
2023/11/11 12:00:19;;;;;;;12.52;2.00;;;14.80;80.90;;;;;;4951668;28;20132;-77
2023/11/11 12:02:44;;;;;;;10.95;0.80;;;14.60;80.60;;;;;;4951188;28;20048;-77
2023/11/11 12:05:12;;;;;;;3.97;1.35;;;14.90;81.30;;;;;;4961058;28;20373;-77
2023/11/11 12:07:38;;;;;;;6.70;0.80;;;15.10;80.80;;;;;;4956359;28;20023;-77
2023/11/11 12:10:06;;;;;;;6.70;1.15;;;15.10;82.00;;;;;;4956362;28;20034;-77
2023/11/11 12:12:32;;;;;;;4.82;0.90;;;15.20;82.60;;;;;;4951298;28;20019;-78
2023/11/11 12:14:58;;;;;;;1.63;1.00;;;15.30;83.20;;;;;;4952189;28;20038;-77
2023/11/11 12:17:25;;;;;;;2.95;1.00;;;15.30;83.90;;;;;;4957977;28;20031;-76
2023/11/11 12:19:53;;;;;;;6.22;1.30;;;15.40;83.70;;;;;;4957275;28;20015;-76
2023/11/11 12:22:19;;;;;;;7.65;0.95;;;15.40;84.00;;;;;;4958152;28;20022;-77
2023/11/11 12:24:45;;;;;;;10.90;1.80;;;15.40;84.30;;;;;;4952649;29;20016;-77
2023/11/11 12:27:11;;;;;;;17.58;1.08;;;15.40;84.20;;;;;;4959476;28;20043;-77
2023/11/11 12:29:40;;;;;;;11.90;1.42;;;15.40;84.80;;;;;;4959524;28;20027;-78
2023/11/11 12:32:13;;;;;;;7.90;1.08;;;15.40;84.90;;;;;;4959816;28;20067;-77
2023/11/11 12:34:39;;;;;;;3.22;1.00;;;15.40;85.00;;;;;;4955857;28;20027;-78
2023/11/11 12:37:05;;;;;;;12.98;2.13;;;15.40;85.40;;;;;;4954424;28;20054;-77
2023/11/11 12:39:32;;;;;;;3.45;1.13;;;15.50;85.20;;;;;;4961650;28;20476;-77
2023/11/11 12:41:58;;;;;;;1.67;0.90;;;15.50;85.20;;;;;;4961349;28;20011;-79
2023/11/11 12:44:24;;;;;;;2.85;1.17;;;15.10;86.10;;;;;;4957422;28;20019;-80
2023/11/11 12:46:50;;;;;;;2.70;1.10;;;13.30;90.30;;;;;;4955675;28;20400;-80
2023/11/11 12:49:27;;;;;;;5.95;1.02;;;12.20;93.00;;;;;;4973173;28;20019;-79
2023/11/11 12:51:55;;;;;;;1.25;0.82;;;11.40;94.90;;;;;;4975783;28;20023;-78
2023/11/11 12:54:33;;;;;;;2.60;1.00;;;10.90;96.60;;;;;;4959770;28;20034;-79
2023/11/11 12:56:58;;;;;;;4.03;1.10;;;10.60;97.50;;;;;;4957159;28;20441;-78
2023/11/11 12:59:24;;;;;;;1.10;1.00;;;10.40;98.00;;;;;;4954425;28;20035;-78
2023/11/11 13:01:50;;;;;;;3.30;1.10;;;10.30;98.20;;;;;;4960506;28;20090;-77
2023/11/11 13:04:17;;;;;;;5.53;1.20;;;10.20;98.00;;;;;;4962700;28;20484;-78
2023/11/11 13:06:44;;;;;;;1.73;1.10;;;10.20;98.20;;;;;;4957701;28;20019;-78
2023/11/11 13:09:18;;;;;;;3.45;1.23;;;10.10;98.30;;;;;;4957215;28;20027;-78
2023/11/11 13:11:46;;;;;;;5.35;0.98;;;10.10;98.50;;;;;;4954385;28;20539;-78
2023/11/11 13:14:13;;;;;;;0.70;0.70;;;10.00;98.70;;;;;;4959977;28;20027;-79
2023/11/11 13:16:40;;;;;;;2.00;1.00;;;10.00;98.90;;;;;;4959462;28;20102;-78
2023/11/11 13:19:09;;;;;;;1.45;0.73;;;10.00;98.80;;;;;;4959194;28;20051;-77
2023/11/11 13:21:38;;;;;;;1.63;1.00;;;10.00;99.20;;;;;;4954507;28;20023;-78
2023/11/11 13:24:09;;;;;;;1.08;0.95;;;10.00;99.30;;;;;;4954466;28;20016;-78
2023/11/11 13:26:34;;;;;;;;;;;9.90;99.40;;;;;;4961848;28;20081;-79
2023/11/11 13:29:00;;;;;;;1.02;0.90;;;9.90;99.70;;;;;;4960491;28;20379;-76
2023/11/11 13:31:28;;;;;;;2.33;1.00;;;9.90;99.90;;;;;;4956906;28;20098;-75
2023/11/11 13:33:54;;;;;;;1.50;0.93;;;9.90;99.80;;;;;;4951830;28;20028;-75
2023/11/11 13:36:27;;;;;;;2.20;0.82;;;9.90;99.70;;;;;;4953643;28;20030;-73
2023/11/11 13:38:53;;;;;;;1.48;0.80;;;9.80;99.60;;;;;;4957478;28;20024;-78
2023/11/11 13:41:19;;;;;;;2.05;0.90;;;9.80;99.30;;;;;;4961390;28;20085;-78
2023/11/11 13:43:50;;;;;;;1.92;0.95;;;9.80;99.10;;;;;;4953976;28;20060;-78
2023/11/11 13:46:15;;;;;;;;;;;9.80;99.20;;;;;;4952485;28;20075;-79
2023/11/11 13:48:41;;;;;;;2.75;0.95;;;9.80;99.40;;;;;;4960025;28;20335;-78
2023/11/11 13:51:10;;;;;;;1.83;0.95;;;9.80;99.40;;;;;;4961230;28;20031;-78
2023/11/11 13:53:36;;;;;;;0.80;0.80;;;9.80;99.60;;;;;;4971859;28;20024;-78
2023/11/11 13:56:05;;;;;;;3.08;1.50;;;9.80;99.40;;;;;;4953095;28;20535;-78
2023/11/11 13:58:35;;;;;;;2.78;0.93;;;9.80;99.20;;;;;;4951939;29;20034;-77
2023/11/11 14:01:00;;;;;;;1.10;0.88;;;9.80;99.20;;;;;;4960348;28;20323;-78
2023/11/11 14:03:26;;;;;;;0.70;0.70;;;9.80;99.00;;;;;;4959307;28;20023;-78
2023/11/11 14:05:53;;;;;;;0.88;0.80;;;9.80;99.00;;;;;;4956225;28;20082;-78
2023/11/11 14:08:19;;;;;;;5.75;1.10;;;9.80;98.60;;;;;;4951569;28;20031;-79
2023/11/11 14:10:45;;;;;;;1.70;0.80;;;9.70;98.00;;;;;;4952280;28;20102;-78
2023/11/11 14:13:12;;;;;;;1.17;0.63;;;9.70;98.10;;;;;;4961426;28;20031;-78
2023/11/11 14:15:45;;;;;;;0.75;0.75;;;9.70;98.20;;;;;;4958150;28;20024;-78
2023/11/11 14:18:12;;;;;;;4.35;1.00;;;9.70;98.40;;;;;;4954791;28;20069;-78
2023/11/11 14:20:47;;;;;;;0.60;0.60;;;9.70;98.00;;;;;;4952931;28;20028;-78
2023/11/11 14:23:16;;;;;;;13.55;1.30;;;9.70;98.50;;;;;;4958068;28;20015;-78
2023/11/11 14:25:42;;;;;;;7.55;1.10;;;9.70;98.80;;;;;;4959731;28;20019;-77
2023/11/11 14:28:08;;;;;;;1.95;0.82;;;9.70;99.00;;;;;;4964600;28;20041;-78
2023/11/11 14:30:33;;;;;;;0.93;0.90;;;9.70;99.20;;;;;;4978406;28;20030;-78
2023/11/11 14:32:59;;;;;;;1.90;0.95;;;9.70;99.30;;;;;;4950955;29;20562;-78
2023/11/11 14:35:28;;;;;;;3.17;1.25;;;9.70;99.50;;;;;;4955680;28;20615;-78
2023/11/11 14:37:55;;;;;;;8.32;1.35;;;9.70;99.50;;;;;;4956346;28;20490;-78
2023/11/11 14:40:23;;;;;;;0.70;0.70;;;9.70;99.30;;;;;;4950703;28;20031;-78
2023/11/11 14:42:52;;;;;;;2.40;0.90;;;9.70;98.90;;;;;;4949330;28;20086;-78
2023/11/11 14:45:19;;;;;;;7.35;0.80;;;9.60;98.90;;;;;;4963588;28;20385;-78
2023/11/11 14:47:46;;;;;;;1.13;0.90;;;9.60;98.80;;;;;;4956297;28;20503;-78
2023/11/11 14:50:13;;;;;;;0.95;0.70;;;9.60;99.00;;;;;;4954131;28;20035;-78
2023/11/11 14:52:41;;;;;;;1.95;1.00;;;9.60;98.60;;;;;;4949899;28;20034;-78
2023/11/11 14:55:14;;;;;;;1.13;0.95;;;9.60;98.70;;;;;;4948296;28;20509;-78
2023/11/11 14:57:40;;;;;;;0.60;0.60;;;9.60;99.00;;;;;;4948222;28;20041;-78
2023/11/11 15:00:07;;;;;;;0.98;0.85;;;9.60;98.90;;;;;;4954827;28;20106;-78
2023/11/11 15:02:39;;;;;;;1.17;0.80;;;9.60;98.60;;;;;;4952878;28;20047;-78
2023/11/11 15:05:05;;;;;;;0.98;0.90;;;9.60;99.30;;;;;;4951114;28;20011;-78
2023/11/11 15:07:34;;;;;;;1.50;0.90;;;9.60;99.60;;;;;;4947969;28;20585;-78
2023/11/11 15:10:06;;;;;;;2.78;0.95;;;9.60;99.70;;;;;;4955837;28;20027;-78
2023/11/11 15:12:36;;;;;;;1.00;0.80;;;9.60;99.90;;;;;;4953956;28;20037;-79
2023/11/11 15:15:07;;;;;;;0.80;0.80;;;9.60;99.80;;;;;;4949350;28;20030;-78
2023/11/11 15:17:33;;;;;;;3.60;0.80;;;9.60;99.60;;;;;;4951578;28;20043;-78
2023/11/11 15:19:58;;;;;;;0.98;0.77;;;9.70;99.90;;;;;;4956903;28;20534;-78
2023/11/11 15:22:25;;;;;;;4.47;0.70;;;9.60;99.90;;;;;;4973341;28;20123;-77
2023/11/11 15:24:52;;;;;;;4.55;1.40;;;11.20;99.90;;;;;;4952800;28;20090;-81
2023/11/11 15:27:21;;;;;;;26.02;2.15;;;13.90;96.10;;;;;;4954115;28;20090;-78
2023/11/11 15:29:49;;;;;;;19.02;1.88;;;14.80;94.00;;;;;;4950154;28;20032;-78
2023/11/11 15:32:16;;;;;;;14.43;1.73;;;13.70;93.90;;;;;;4952058;28;20031;-79
2023/11/11 15:34:42;;;;;;;10.85;2.45;;;12.30;96.50;;;;;;4952710;28;20459;-79
2023/11/11 15:37:11;;;;;;;6.80;1.42;;;11.40;98.40;;;;;;4952681;28;20093;-79
2023/11/11 15:39:36;;;;;;;6.60;1.60;;;10.90;99.30;;;;;;4951791;28;20023;-79
2023/11/11 15:42:02;;;;;;;12.57;1.25;;;10.50;99.90;;;;;;4949024;28;20105;-79
2023/11/11 15:44:29;;;;;;;7.43;1.10;;;10.30;99.90;;;;;;4957663;28;20022;-79
2023/11/11 15:47:00;;;;;;;2.22;0.98;;;10.20;99.90;;;;;;4956230;28;20034;-79
2023/11/11 15:49:25;;;;;;;6.07;1.20;;;10.10;99.90;;;;;;4950283;28;20049;-79
2023/11/11 15:51:51;;;;;;;2.70;0.90;;;10.00;99.90;;;;;;4960283;28;20492;-79
2023/11/11 15:54:17;;;;;;;1.85;0.95;;;10.00;99.90;;;;;;4958517;28;20027;-80
2023/11/11 15:56:46;;;;;;;3.65;1.08;;;9.90;99.90;;;;;;4980184;28;20030;-78
2023/11/11 15:59:12;;;;;;;2.53;1.17;;;9.90;99.90;;;;;;4958106;28;20023;-80
2023/11/11 16:01:40;;;;;;;1.23;0.80;;;9.90;99.90;;;;;;4954163;28;20027;-79
2023/11/11 16:04:06;;;;;;;3.95;1.10;;;9.80;99.90;;;;;;4951600;28;20034;-79
2023/11/11 16:06:32;;;;;;;1.60;0.82;;;9.80;99.90;;;;;;4955771;28;20027;-79
2023/11/11 16:08:57;;;;;;;0.73;0.73;;;9.80;99.90;;;;;;4958072;28;20042;-79
2023/11/11 16:11:23;;;;;;;2.65;1.00;;;9.80;99.90;;;;;;4958710;28;20102;-79
2023/11/11 16:13:48;;;;;;;2.90;1.05;;;9.80;99.90;;;;;;4956303;28;20070;-80
2023/11/11 16:16:19;;;;;;;0.93;0.82;;;9.70;99.90;;;;;;4960373;28;20071;-79
2023/11/11 16:18:45;;;;;;;2.35;0.88;;;9.80;99.90;;;;;;4961121;28;20023;-79
2023/11/11 16:21:21;;;;;;;6.03;1.20;;;9.70;99.90;;;;;;4960306;28;20556;-78
2023/11/11 16:23:48;;;;;;;0.80;0.80;;;9.70;99.90;;;;;;4961604;28;20534;-79
2023/11/11 16:26:14;;;;;;;1.58;1.10;;;9.70;99.90;;;;;;4958136;28;20114;-79
2023/11/11 16:28:40;;;;;;;3.40;1.10;;;9.70;99.90;;;;;;4958819;28;20050;-79
2023/11/11 16:31:05;;;;;;;1.02;0.93;;;9.70;99.90;;;;;;4959046;28;20070;-79
2023/11/11 16:33:34;;;;;;;1.50;1.00;;;9.70;99.90;;;;;;4958911;28;20022;-79
2023/11/11 16:36:00;;;;;;;1.95;1.30;;;9.70;99.90;;;;;;4952967;28;20051;-79
2023/11/11 16:38:26;;;;;;;3.40;1.58;;;9.70;99.90;;;;;;4955067;28;20433;-79
2023/11/11 16:40:51;;;;;;;2.17;1.30;;;9.60;99.90;;;;;;4950688;28;20022;-80
2023/11/11 16:43:17;;;;;;;1.98;1.40;;;9.60;99.90;;;;;;4960523;28;20031;-79
2023/11/11 16:45:42;;;;;;;3.33;1.75;;;9.60;99.90;;;;;;4958830;28;20027;-78
2023/11/11 16:48:09;;;;;;;2.08;1.33;;;9.60;99.90;;;;;;4956306;28;20046;-79
2023/11/11 16:50:37;;;;;;;3.78;1.50;;;9.60;99.90;;;;;;4951425;28;20110;-79
2023/11/11 16:53:03;;;;;;;2.03;1.60;;;9.60;99.90;;;;;;4950238;28;20035;-79
2023/11/11 16:55:28;;;;;;;1.50;1.40;;;9.60;99.90;;;;;;4962596;28;20160;-78